sensor_id;sensor_type;location;lat;lon;timestamp;temperature;humidity
15184;DHT22;7693;49.266;7.104;2023-12-20T02:51:19;4.80;99.90
15184;DHT22;7693;49.266;7.104;2023-12-20T02:53:45;4.90;99.90
15184;DHT22;7693;49.266;7.104;2023-12-20T02:56:10;4.90;99.90
15184;DHT22;7693;49.266;7.104;2023-12-20T02:58:36;5.00;99.90
15184;DHT22;7693;49.266;7.104;2023-12-20T03:01:02;5.00;99.90
15184;DHT22;7693;49.266;7.104;2023-12-20T03:03:27;5.00;99.90
15184;DHT22;7693;49.266;7.104;2023-12-20T03:05:53;5.00;99.90
15184;DHT22;7693;49.266;7.104;2023-12-20T03:08:19;5.10;99.90
15184;DHT22;7693;49.266;7.104;2023-12-20T03:10:44;5.10;99.90
15184;DHT22;7693;49.266;7.104;2023-12-20T03:13:10;5.10;99.90
15184;DHT22;7693;49.266;7.104;2023-12-20T03:15:35;5.20;99.90
15184;DHT22;7693;49.266;7.104;2023-12-20T03:18:01;5.20;99.90
15184;DHT22;7693;49.266;7.104;2023-12-20T03:20:27;5.20;99.90
15184;DHT22;7693;49.266;7.104;2023-12-20T03:22:53;5.20;99.90
15184;DHT22;7693;49.266;7.104;2023-12-20T03:25:18;5.20;99.90
15184;DHT22;7693;49.266;7.104;2023-12-20T03:27:44;5.20;99.90
15184;DHT22;7693;49.266;7.104;2023-12-20T03:30:09;5.30;99.90
15184;DHT22;7693;49.266;7.104;2023-12-20T03:32:37;5.30;99.90
15184;DHT22;7693;49.266;7.104;2023-12-20T03:35:03;5.30;99.90
15184;DHT22;7693;49.266;7.104;2023-12-20T03:37:28;5.30;99.90
15184;DHT22;7693;49.266;7.104;2023-12-20T03:39:54;5.40;99.90
15184;DHT22;7693;49.266;7.104;2023-12-20T03:42:20;5.40;99.90
15184;DHT22;7693;49.266;7.104;2023-12-20T03:44:45;5.40;99.90
15184;DHT22;7693;49.266;7.104;2023-12-20T03:47:11;5.40;99.90
15184;DHT22;7693;49.266;7.104;2023-12-20T03:49:37;5.50;99.90
15184;DHT22;7693;49.266;7.104;2023-12-20T03:52:04;5.50;99.90
15184;DHT22;7693;49.266;7.104;2023-12-20T03:54:30;5.50;99.90
15184;DHT22;7693;49.266;7.104;2023-12-20T03:56:55;5.50;99.90
15184;DHT22;7693;49.266;7.104;2023-12-20T03:59:21;5.50;99.90
15184;DHT22;7693;49.266;7.104;2023-12-20T04:01:47;5.50;99.90
15184;DHT22;7693;49.266;7.104;2023-12-20T04:04:13;5.50;99.90
15184;DHT22;7693;49.266;7.104;2023-12-20T04:06:39;5.50;99.90
15184;DHT22;7693;49.266;7.104;2023-12-20T04:09:05;5.50;99.90
15184;DHT22;7693;49.266;7.104;2023-12-20T04:11:30;5.60;99.90
15184;DHT22;7693;49.266;7.104;2023-12-20T04:13:56;5.60;99.90
15184;DHT22;7693;49.266;7.104;2023-12-20T04:16:22;5.60;99.90
15184;DHT22;7693;49.266;7.104;2023-12-20T04:18:47;5.60;99.90
15184;DHT22;7693;49.266;7.104;2023-12-20T04:21:13;5.70;99.90
15184;DHT22;7693;49.266;7.104;2023-12-20T04:23:38;5.70;99.90
15184;DHT22;7693;49.266;7.104;2023-12-20T04:26:04;5.60;99.90
15184;DHT22;7693;49.266;7.104;2023-12-20T04:28:29;5.60;99.90
15184;DHT22;7693;49.266;7.104;2023-12-20T04:30:56;5.60;99.90
15184;DHT22;7693;49.266;7.104;2023-12-20T04:33:22;5.60;99.90
15184;DHT22;7693;49.266;7.104;2023-12-20T04:35:48;5.60;99.90
15184;DHT22;7693;49.266;7.104;2023-12-20T04:38:13;5.50;99.90
15184;DHT22;7693;49.266;7.104;2023-12-20T04:40:39;5.50;99.90
15184;DHT22;7693;49.266;7.104;2023-12-20T04:43:06;5.50;99.90
15184;DHT22;7693;49.266;7.104;2023-12-20T04:45:32;5.60;99.90
15184;DHT22;7693;49.266;7.104;2023-12-20T04:47:58;5.50;99.90
15184;DHT22;7693;49.266;7.104;2023-12-20T04:50:23;5.50;99.90
15184;DHT22;7693;49.266;7.104;2023-12-20T04:52:49;5.50;99.90
15184;DHT22;7693;49.266;7.104;2023-12-20T04:55:15;5.60;99.90
15184;DHT22;7693;49.266;7.104;2023-12-20T04:57:41;5.50;99.90
15184;DHT22;7693;49.266;7.104;2023-12-20T05:00:06;5.50;99.90
15184;DHT22;7693;49.266;7.104;2023-12-20T05:02:36;5.50;99.90
15184;DHT22;7693;49.266;7.104;2023-12-20T05:05:02;5.50;99.90
15184;DHT22;7693;49.266;7.104;2023-12-20T05:07:28;5.40;99.90
15184;DHT22;7693;49.266;7.104;2023-12-20T05:09:53;5.40;99.90
15184;DHT22;7693;49.266;7.104;2023-12-20T05:12:19;5.30;99.90
15184;DHT22;7693;49.266;7.104;2023-12-20T05:14:45;5.20;99.90
15184;DHT22;7693;49.266;7.104;2023-12-20T05:17:11;5.10;99.90
15184;DHT22;7693;49.266;7.104;2023-12-20T05:19:37;5.10;99.90
15184;DHT22;7693;49.266;7.104;2023-12-20T05:22:02;5.00;99.90
15184;DHT22;7693;49.266;7.104;2023-12-20T05:24:28;5.00;99.90
15184;DHT22;7693;49.266;7.104;2023-12-20T05:26:54;4.90;99.90
15184;DHT22;7693;49.266;7.104;2023-12-20T05:29:20;4.90;99.90
15184;DHT22;7693;49.266;7.104;2023-12-20T05:31:46;4.80;99.90
15184;DHT22;7693;49.266;7.104;2023-12-20T05:34:11;4.70;99.90
15184;DHT22;7693;49.266;7.104;2023-12-20T05:36:37;4.70;99.90
15184;DHT22;7693;49.266;7.104;2023-12-20T05:39:03;4.70;99.90
15184;DHT22;7693;49.266;7.104;2023-12-20T05:41:33;4.60;99.90
15184;DHT22;7693;49.266;7.104;2023-12-20T05:43:58;4.60;99.90
15184;DHT22;7693;49.266;7.104;2023-12-20T05:46:25;4.60;99.90
15184;DHT22;7693;49.266;7.104;2023-12-20T05:48:50;4.60;99.90
15184;DHT22;7693;49.266;7.104;2023-12-20T05:51:17;4.60;99.90
15184;DHT22;7693;49.266;7.104;2023-12-20T05:53:43;4.60;99.90
15184;DHT22;7693;49.266;7.104;2023-12-20T05:56:09;4.50;99.90
15184;DHT22;7693;49.266;7.104;2023-12-20T05:58:35;4.50;99.90
15184;DHT22;7693;49.266;7.104;2023-12-20T06:01:03;4.50;99.90
15184;DHT22;7693;49.266;7.104;2023-12-20T06:03:29;4.50;99.90
15184;DHT22;7693;49.266;7.104;2023-12-20T06:05:54;4.50;99.90
15184;DHT22;7693;49.266;7.104;2023-12-20T06:08:20;4.50;99.90
15184;DHT22;7693;49.266;7.104;2023-12-20T06:10:45;4.50;99.90
15184;DHT22;7693;49.266;7.104;2023-12-20T06:13:11;4.40;99.90
15184;DHT22;7693;49.266;7.104;2023-12-20T06:15:38;4.40;99.90
15184;DHT22;7693;49.266;7.104;2023-12-20T06:18:04;4.40;99.90
15184;DHT22;7693;49.266;7.104;2023-12-20T06:20:29;4.30;99.90
15184;DHT22;7693;49.266;7.104;2023-12-20T06:22:55;4.30;99.90
15184;DHT22;7693;49.266;7.104;2023-12-20T06:25:21;4.30;99.90
15184;DHT22;7693;49.266;7.104;2023-12-20T06:27:46;4.20;99.90
15184;DHT22;7693;49.266;7.104;2023-12-20T06:30:12;4.20;99.90
15184;DHT22;7693;49.266;7.104;2023-12-20T06:32:38;4.20;99.90
15184;DHT22;7693;49.266;7.104;2023-12-20T06:35:05;4.20;99.90
15184;DHT22;7693;49.266;7.104;2023-12-20T06:37:30;4.20;99.90
15184;DHT22;7693;49.266;7.104;2023-12-20T06:39:56;4.20;99.90
15184;DHT22;7693;49.266;7.104;2023-12-20T06:42:25;4.10;99.90
15184;DHT22;7693;49.266;7.104;2023-12-20T06:44:50;4.10;99.90
15184;DHT22;7693;49.266;7.104;2023-12-20T06:47:16;4.10;99.90
15184;DHT22;7693;49.266;7.104;2023-12-20T06:49:41;4.10;99.90
15184;DHT22;7693;49.266;7.104;2023-12-20T06:52:07;4.20;99.90
15184;DHT22;7693;49.266;7.104;2023-12-20T06:54:32;4.20;99.90
15184;DHT22;7693;49.266;7.104;2023-12-20T06:57:00;4.20;99.90
15184;DHT22;7693;49.266;7.104;2023-12-20T06:59:25;4.20;99.90
15184;DHT22;7693;49.266;7.104;2023-12-20T07:01:51;4.20;99.90
15184;DHT22;7693;49.266;7.104;2023-12-20T07:04:18;4.20;99.90
15184;DHT22;7693;49.266;7.104;2023-12-20T07:06:46;4.30;99.90
15184;DHT22;7693;49.266;7.104;2023-12-20T07:09:12;4.30;99.90
15184;DHT22;7693;49.266;7.104;2023-12-20T07:11:38;4.30;99.90
15184;DHT22;7693;49.266;7.104;2023-12-20T07:14:04;4.30;99.90
15184;DHT22;7693;49.266;7.104;2023-12-20T07:16:30;4.30;99.90
15184;DHT22;7693;49.266;7.104;2023-12-20T07:18:55;4.40;99.90
15184;DHT22;7693;49.266;7.104;2023-12-20T07:21:22;4.40;99.90
15184;DHT22;7693;49.266;7.104;2023-12-20T07:23:48;4.50;99.90
15184;DHT22;7693;49.266;7.104;2023-12-20T07:26:14;4.50;99.90
15184;DHT22;7693;49.266;7.104;2023-12-20T07:28:40;4.50;99.90
15184;DHT22;7693;49.266;7.104;2023-12-20T07:31:06;4.40;99.90
15184;DHT22;7693;49.266;7.104;2023-12-20T07:33:32;4.50;99.90
15184;DHT22;7693;49.266;7.104;2023-12-20T07:35:59;4.40;99.90
15184;DHT22;7693;49.266;7.104;2023-12-20T07:38:24;4.50;99.90
15184;DHT22;7693;49.266;7.104;2023-12-20T07:40:50;4.50;99.90
15184;DHT22;7693;49.266;7.104;2023-12-20T07:43:16;4.50;99.90
15184;DHT22;7693;49.266;7.104;2023-12-20T07:45:41;4.50;99.90
15184;DHT22;7693;49.266;7.104;2023-12-20T07:48:07;4.50;99.90
15184;DHT22;7693;49.266;7.104;2023-12-20T07:50:33;4.50;99.90
15184;DHT22;7693;49.266;7.104;2023-12-20T07:52:59;4.50;99.90
15184;DHT22;7693;49.266;7.104;2023-12-20T07:55:26;4.50;99.90
15184;DHT22;7693;49.266;7.104;2023-12-20T07:57:52;4.50;99.90
15184;DHT22;7693;49.266;7.104;2023-12-20T08:00:18;4.50;99.90
15184;DHT22;7693;49.266;7.104;2023-12-20T08:02:44;4.50;99.90
15184;DHT22;7693;49.266;7.104;2023-12-20T08:05:10;4.60;99.90
15184;DHT22;7693;49.266;7.104;2023-12-20T08:07:36;4.60;99.90
15184;DHT22;7693;49.266;7.104;2023-12-20T08:10:02;4.60;99.90
15184;DHT22;7693;49.266;7.104;2023-12-20T08:12:27;4.60;99.90
15184;DHT22;7693;49.266;7.104;2023-12-20T08:14:54;4.70;99.90
15184;DHT22;7693;49.266;7.104;2023-12-20T08:17:19;4.70;99.90
15184;DHT22;7693;49.266;7.104;2023-12-20T08:19:45;4.70;99.90
15184;DHT22;7693;49.266;7.104;2023-12-20T08:22:11;4.70;99.90
15184;DHT22;7693;49.266;7.104;2023-12-20T08:24:37;4.80;99.90
15184;DHT22;7693;49.266;7.104;2023-12-20T08:27:04;4.80;99.90
15184;DHT22;7693;49.266;7.104;2023-12-20T08:29:29;4.80;99.90
15184;DHT22;7693;49.266;7.104;2023-12-20T08:31:55;4.80;99.90
15184;DHT22;7693;49.266;7.104;2023-12-20T08:34:21;4.80;99.90
15184;DHT22;7693;49.266;7.104;2023-12-20T08:36:47;4.80;99.90
15184;DHT22;7693;49.266;7.104;2023-12-20T08:39:12;4.90;99.90
15184;DHT22;7693;49.266;7.104;2023-12-20T08:41:38;4.90;99.90
15184;DHT22;7693;49.266;7.104;2023-12-20T08:44:04;4.90;99.90
15184;DHT22;7693;49.266;7.104;2023-12-20T08:46:29;4.90;99.90
15184;DHT22;7693;49.266;7.104;2023-12-20T08:48:55;5.00;99.90
15184;DHT22;7693;49.266;7.104;2023-12-20T08:51:21;5.00;99.90
15184;DHT22;7693;49.266;7.104;2023-12-20T08:53:48;5.00;99.90
15184;DHT22;7693;49.266;7.104;2023-12-20T08:56:14;5.00;99.90
15184;DHT22;7693;49.266;7.104;2023-12-20T08:58:40;5.00;99.90
15184;DHT22;7693;49.266;7.104;2023-12-20T09:01:06;5.10;99.90
15184;DHT22;7693;49.266;7.104;2023-12-20T09:03:32;5.10;99.90
15184;DHT22;7693;49.266;7.104;2023-12-20T09:05:58;5.10;99.90
15184;DHT22;7693;49.266;7.104;2023-12-20T09:08:24;5.20;99.90
15184;DHT22;7693;49.266;7.104;2023-12-20T09:10:49;5.20;99.90
15184;DHT22;7693;49.266;7.104;2023-12-20T09:13:15;5.20;99.90
15184;DHT22;7693;49.266;7.104;2023-12-20T09:15:41;5.20;99.90
15184;DHT22;7693;49.266;7.104;2023-12-20T09:18:06;5.20;99.90
15184;DHT22;7693;49.266;7.104;2023-12-20T09:20:32;5.30;99.90
15184;DHT22;7693;49.266;7.104;2023-12-20T09:22:58;5.30;99.90
15184;DHT22;7693;49.266;7.104;2023-12-20T09:25:24;5.30;99.90
15184;DHT22;7693;49.266;7.104;2023-12-20T09:27:51;5.40;99.90
15184;DHT22;7693;49.266;7.104;2023-12-20T09:30:18;5.40;99.90
15184;DHT22;7693;49.266;7.104;2023-12-20T09:32:43;5.40;99.90
15184;DHT22;7693;49.266;7.104;2023-12-20T09:35:09;5.40;99.90
15184;DHT22;7693;49.266;7.104;2023-12-20T09:37:35;5.40;99.90
15184;DHT22;7693;49.266;7.104;2023-12-20T09:40:00;5.50;99.90
15184;DHT22;7693;49.266;7.104;2023-12-20T09:43:25;5.40;99.90
15184;DHT22;7693;49.266;7.104;2023-12-20T09:45:25;5.50;99.90
15184;DHT22;7693;49.266;7.104;2023-12-20T09:47:54;5.50;99.90
15184;DHT22;7693;49.266;7.104;2023-12-20T09:50:21;5.50;99.90
15184;DHT22;7693;49.266;7.104;2023-12-20T09:52:53;5.50;99.90
15184;DHT22;7693;49.266;7.104;2023-12-20T09:55:19;5.60;99.90
15184;DHT22;7693;49.266;7.104;2023-12-20T09:57:46;5.50;99.90
15184;DHT22;7693;49.266;7.104;2023-12-20T10:00:13;5.50;99.90
15184;DHT22;7693;49.266;7.104;2023-12-20T10:02:45;5.50;99.90
15184;DHT22;7693;49.266;7.104;2023-12-20T10:05:16;5.50;99.90
15184;DHT22;7693;49.266;7.104;2023-12-20T10:07:46;5.50;99.90
15184;DHT22;7693;49.266;7.104;2023-12-20T10:10:13;5.50;99.90
15184;DHT22;7693;49.266;7.104;2023-12-20T10:12:39;5.50;99.90
15184;DHT22;7693;49.266;7.104;2023-12-20T10:15:05;5.50;99.90
15184;DHT22;7693;49.266;7.104;2023-12-20T10:17:31;5.50;99.90
15184;DHT22;7693;49.266;7.104;2023-12-20T10:19:58;5.60;99.90
15184;DHT22;7693;49.266;7.104;2023-12-20T10:22:24;5.60;99.90
15184;DHT22;7693;49.266;7.104;2023-12-20T10:24:49;5.60;99.90
15184;DHT22;7693;49.266;7.104;2023-12-20T10:27:18;5.60;99.90
15184;DHT22;7693;49.266;7.104;2023-12-20T10:29:45;5.60;99.90
15184;DHT22;7693;49.266;7.104;2023-12-20T10:32:24;5.70;99.90
15184;DHT22;7693;49.266;7.104;2023-12-20T10:34:50;5.70;99.90
15184;DHT22;7693;49.266;7.104;2023-12-20T10:37:16;5.70;99.90
15184;DHT22;7693;49.266;7.104;2023-12-20T10:39:49;5.80;99.90
15184;DHT22;7693;49.266;7.104;2023-12-20T10:42:16;5.80;99.90
15184;DHT22;7693;49.266;7.104;2023-12-20T10:44:42;5.80;99.90
15184;DHT22;7693;49.266;7.104;2023-12-20T10:47:09;5.90;99.90
15184;DHT22;7693;49.266;7.104;2023-12-20T10:49:37;5.90;99.90
15184;DHT22;7693;49.266;7.104;2023-12-20T10:52:05;5.90;99.90
15184;DHT22;7693;49.266;7.104;2023-12-20T10:54:31;6.00;99.90
15184;DHT22;7693;49.266;7.104;2023-12-20T10:56:57;6.00;99.90
15184;DHT22;7693;49.266;7.104;2023-12-20T12:48:15;5.90;99.90
15184;DHT22;7693;49.266;7.104;2023-12-20T12:50:41;5.90;99.90
15184;DHT22;7693;49.266;7.104;2023-12-20T12:53:07;5.90;99.90
15184;DHT22;7693;49.266;7.104;2023-12-20T12:55:34;5.90;99.90
15184;DHT22;7693;49.266;7.104;2023-12-20T12:58:00;5.90;99.90
15184;DHT22;7693;49.266;7.104;2023-12-20T13:00:26;6.00;99.90
15184;DHT22;7693;49.266;7.104;2023-12-20T13:02:52;6.00;99.90
15184;DHT22;7693;49.266;7.104;2023-12-20T13:05:17;6.00;99.90
15184;DHT22;7693;49.266;7.104;2023-12-20T13:07:43;6.10;99.90
15184;DHT22;7693;49.266;7.104;2023-12-20T13:10:11;6.10;99.90
15184;DHT22;7693;49.266;7.104;2023-12-20T13:12:37;6.10;99.90
15184;DHT22;7693;49.266;7.104;2023-12-20T13:15:03;6.10;99.90
15184;DHT22;7693;49.266;7.104;2023-12-20T13:17:31;6.10;99.90
15184;DHT22;7693;49.266;7.104;2023-12-20T13:19:57;6.10;99.90
15184;DHT22;7693;49.266;7.104;2023-12-20T13:22:22;6.20;99.90
15184;DHT22;7693;49.266;7.104;2023-12-20T13:24:48;6.20;99.90
15184;DHT22;7693;49.266;7.104;2023-12-20T13:27:14;6.20;99.90
15184;DHT22;7693;49.266;7.104;2023-12-20T13:29:40;6.30;99.90
15184;DHT22;7693;49.266;7.104;2023-12-20T13:32:05;6.30;99.90
15184;DHT22;7693;49.266;7.104;2023-12-20T13:34:31;6.30;99.90
15184;DHT22;7693;49.266;7.104;2023-12-20T13:36:57;6.30;99.90
15184;DHT22;7693;49.266;7.104;2023-12-20T13:39:23;6.30;99.90
15184;DHT22;7693;49.266;7.104;2023-12-20T13:41:49;6.30;99.90
15184;DHT22;7693;49.266;7.104;2023-12-20T13:44:14;6.30;99.90
15184;DHT22;7693;49.266;7.104;2023-12-20T13:46:41;6.30;99.90
15184;DHT22;7693;49.266;7.104;2023-12-20T13:49:06;6.30;99.90
15184;DHT22;7693;49.266;7.104;2023-12-20T13:51:32;6.30;99.90
15184;DHT22;7693;49.266;7.104;2023-12-20T13:53:58;6.30;99.90
15184;DHT22;7693;49.266;7.104;2023-12-20T13:56:25;6.30;99.90
15184;DHT22;7693;49.266;7.104;2023-12-20T13:58:50;6.30;99.90
15184;DHT22;7693;49.266;7.104;2023-12-20T14:01:17;6.30;99.90
15184;DHT22;7693;49.266;7.104;2023-12-20T14:03:42;6.30;99.90
15184;DHT22;7693;49.266;7.104;2023-12-20T14:06:08;6.30;99.90
15184;DHT22;7693;49.266;7.104;2023-12-20T14:08:34;6.30;99.90
15184;DHT22;7693;49.266;7.104;2023-12-20T14:11:01;6.30;99.90
15184;DHT22;7693;49.266;7.104;2023-12-20T14:13:27;6.30;99.90
15184;DHT22;7693;49.266;7.104;2023-12-20T14:15:52;6.30;99.90
15184;DHT22;7693;49.266;7.104;2023-12-20T14:18:20;6.30;99.90
15184;DHT22;7693;49.266;7.104;2023-12-20T14:20:45;6.40;99.90
15184;DHT22;7693;49.266;7.104;2023-12-20T14:23:12;6.40;99.90
15184;DHT22;7693;49.266;7.104;2023-12-20T14:25:41;6.40;99.90
15184;DHT22;7693;49.266;7.104;2023-12-20T14:28:07;6.40;99.90
15184;DHT22;7693;49.266;7.104;2023-12-20T14:30:33;6.40;99.90
15184;DHT22;7693;49.266;7.104;2023-12-20T14:33:00;6.40;99.90
15184;DHT22;7693;49.266;7.104;2023-12-20T14:35:25;6.40;99.90
15184;DHT22;7693;49.266;7.104;2023-12-20T14:37:51;6.40;99.90
15184;DHT22;7693;49.266;7.104;2023-12-20T14:40:17;6.30;99.90
15184;DHT22;7693;49.266;7.104;2023-12-20T14:42:44;6.30;99.90
15184;DHT22;7693;49.266;7.104;2023-12-20T14:45:10;6.30;99.90
15184;DHT22;7693;49.266;7.104;2023-12-20T14:47:35;6.30;99.90
15184;DHT22;7693;49.266;7.104;2023-12-20T14:50:05;6.30;99.90
15184;DHT22;7693;49.266;7.104;2023-12-20T14:52:32;6.30;99.90
15184;DHT22;7693;49.266;7.104;2023-12-20T14:55:00;6.20;99.90
15184;DHT22;7693;49.266;7.104;2023-12-20T14:57:25;6.20;99.90
15184;DHT22;7693;49.266;7.104;2023-12-20T14:59:52;6.20;99.90
15184;DHT22;7693;49.266;7.104;2023-12-20T15:02:17;6.20;99.90
15184;DHT22;7693;49.266;7.104;2023-12-20T15:04:43;6.20;99.90
15184;DHT22;7693;49.266;7.104;2023-12-20T15:07:09;6.20;99.90
15184;DHT22;7693;49.266;7.104;2023-12-20T15:09:34;6.20;99.90
15184;DHT22;7693;49.266;7.104;2023-12-20T15:12:00;6.20;99.90
15184;DHT22;7693;49.266;7.104;2023-12-20T15:14:26;6.20;99.90
15184;DHT22;7693;49.266;7.104;2023-12-20T15:16:53;6.20;99.90
15184;DHT22;7693;49.266;7.104;2023-12-20T15:19:20;6.20;99.90
15184;DHT22;7693;49.266;7.104;2023-12-20T15:21:46;6.20;99.90
15184;DHT22;7693;49.266;7.104;2023-12-20T15:24:12;6.20;99.90
15184;DHT22;7693;49.266;7.104;2023-12-20T15:26:43;6.20;99.90
15184;DHT22;7693;49.266;7.104;2023-12-20T15:29:09;6.20;99.90
15184;DHT22;7693;49.266;7.104;2023-12-20T15:31:43;6.20;99.90
15184;DHT22;7693;49.266;7.104;2023-12-20T15:34:09;6.20;99.90
15184;DHT22;7693;49.266;7.104;2023-12-20T15:36:34;6.20;99.90
15184;DHT22;7693;49.266;7.104;2023-12-20T15:39:01;6.20;99.90
15184;DHT22;7693;49.266;7.104;2023-12-20T15:41:27;6.20;99.90
15184;DHT22;7693;49.266;7.104;2023-12-20T15:43:52;6.20;99.90
15184;DHT22;7693;49.266;7.104;2023-12-20T15:46:18;6.20;99.90
15184;DHT22;7693;49.266;7.104;2023-12-20T15:48:44;6.20;99.90
15184;DHT22;7693;49.266;7.104;2023-12-20T15:51:09;6.20;99.90
15184;DHT22;7693;49.266;7.104;2023-12-20T15:53:35;6.10;99.90
15184;DHT22;7693;49.266;7.104;2023-12-20T15:56:02;6.10;99.90
15184;DHT22;7693;49.266;7.104;2023-12-20T15:58:29;6.10;99.90
15184;DHT22;7693;49.266;7.104;2023-12-20T16:00:56;6.10;99.90
15184;DHT22;7693;49.266;7.104;2023-12-20T16:03:21;6.20;99.90
15184;DHT22;7693;49.266;7.104;2023-12-20T16:05:47;6.20;99.90
15184;DHT22;7693;49.266;7.104;2023-12-20T16:08:12;6.20;99.90
15184;DHT22;7693;49.266;7.104;2023-12-20T16:10:38;6.10;99.90
15184;DHT22;7693;49.266;7.104;2023-12-20T16:13:04;6.10;99.90
15184;DHT22;7693;49.266;7.104;2023-12-20T16:15:30;6.10;99.90
15184;DHT22;7693;49.266;7.104;2023-12-20T16:17:55;6.10;99.90
15184;DHT22;7693;49.266;7.104;2023-12-20T16:20:21;6.20;99.90
15184;DHT22;7693;49.266;7.104;2023-12-20T16:22:46;6.20;99.90
15184;DHT22;7693;49.266;7.104;2023-12-20T16:25:12;6.20;99.90
15184;DHT22;7693;49.266;7.104;2023-12-20T16:27:38;6.20;99.90
15184;DHT22;7693;49.266;7.104;2023-12-20T16:30:05;6.20;99.90
15184;DHT22;7693;49.266;7.104;2023-12-20T16:32:31;6.20;99.90
15184;DHT22;7693;49.266;7.104;2023-12-20T16:34:56;6.20;99.90
15184;DHT22;7693;49.266;7.104;2023-12-20T16:37:22;6.20;99.90
15184;DHT22;7693;49.266;7.104;2023-12-20T16:39:48;6.20;99.90
15184;DHT22;7693;49.266;7.104;2023-12-20T16:42:14;6.20;99.90
15184;DHT22;7693;49.266;7.104;2023-12-20T16:44:39;6.20;99.90
15184;DHT22;7693;49.266;7.104;2023-12-20T16:47:05;6.20;99.90
15184;DHT22;7693;49.266;7.104;2023-12-20T16:49:31;6.20;99.90
15184;DHT22;7693;49.266;7.104;2023-12-20T16:51:57;6.20;99.90
15184;DHT22;7693;49.266;7.104;2023-12-20T16:54:22;6.20;99.90
15184;DHT22;7693;49.266;7.104;2023-12-20T16:56:48;6.20;99.90
15184;DHT22;7693;49.266;7.104;2023-12-20T16:59:14;6.20;99.90
15184;DHT22;7693;49.266;7.104;2023-12-20T17:01:40;6.20;99.90
15184;DHT22;7693;49.266;7.104;2023-12-20T17:04:09;6.20;99.90
15184;DHT22;7693;49.266;7.104;2023-12-20T17:06:35;6.20;99.90
15184;DHT22;7693;49.266;7.104;2023-12-20T17:09:00;6.20;99.90
15184;DHT22;7693;49.266;7.104;2023-12-20T17:11:26;6.20;99.90
15184;DHT22;7693;49.266;7.104;2023-12-20T17:13:51;6.20;99.90
15184;DHT22;7693;49.266;7.104;2023-12-20T17:16:18;6.20;99.90
15184;DHT22;7693;49.266;7.104;2023-12-20T17:18:43;6.10;99.90
15184;DHT22;7693;49.266;7.104;2023-12-20T17:21:17;6.20;99.90
15184;DHT22;7693;49.266;7.104;2023-12-20T17:23:44;6.20;99.90
15184;DHT22;7693;49.266;7.104;2023-12-20T17:26:11;6.20;99.90
15184;DHT22;7693;49.266;7.104;2023-12-20T17:28:37;6.20;99.90
15184;DHT22;7693;49.266;7.104;2023-12-20T17:31:03;6.20;99.90
15184;DHT22;7693;49.266;7.104;2023-12-20T17:33:28;6.20;99.90
15184;DHT22;7693;49.266;7.104;2023-12-20T17:35:54;6.20;99.90
15184;DHT22;7693;49.266;7.104;2023-12-20T17:38:19;6.20;99.90
15184;DHT22;7693;49.266;7.104;2023-12-20T17:40:45;6.20;99.90
15184;DHT22;7693;49.266;7.104;2023-12-20T17:43:11;6.20;99.90
15184;DHT22;7693;49.266;7.104;2023-12-20T17:45:37;6.20;99.90
15184;DHT22;7693;49.266;7.104;2023-12-20T17:48:06;6.20;99.90
15184;DHT22;7693;49.266;7.104;2023-12-20T17:50:32;6.20;99.90
15184;DHT22;7693;49.266;7.104;2023-12-20T17:52:58;6.20;99.90
15184;DHT22;7693;49.266;7.104;2023-12-20T17:55:25;6.20;99.90
15184;DHT22;7693;49.266;7.104;2023-12-20T17:57:51;6.30;99.90
15184;DHT22;7693;49.266;7.104;2023-12-20T18:00:21;6.20;99.90
15184;DHT22;7693;49.266;7.104;2023-12-20T18:02:49;6.20;99.90
15184;DHT22;7693;49.266;7.104;2023-12-20T18:05:16;6.20;99.90
15184;DHT22;7693;49.266;7.104;2023-12-20T18:07:42;6.20;99.90
15184;DHT22;7693;49.266;7.104;2023-12-20T18:10:09;6.20;99.90
15184;DHT22;7693;49.266;7.104;2023-12-20T18:12:35;6.20;99.90
15184;DHT22;7693;49.266;7.104;2023-12-20T18:15:01;6.20;99.90
15184;DHT22;7693;49.266;7.104;2023-12-20T18:17:28;6.20;99.90
15184;DHT22;7693;49.266;7.104;2023-12-20T18:19:53;6.20;99.90
15184;DHT22;7693;49.266;7.104;2023-12-20T18:22:19;6.20;99.90
15184;DHT22;7693;49.266;7.104;2023-12-20T18:24:45;6.30;99.90
15184;DHT22;7693;49.266;7.104;2023-12-20T18:27:10;6.20;99.90
15184;DHT22;7693;49.266;7.104;2023-12-20T18:29:36;6.20;99.90
15184;DHT22;7693;49.266;7.104;2023-12-20T18:32:02;6.20;99.90
15184;DHT22;7693;49.266;7.104;2023-12-20T18:34:28;6.20;99.90
15184;DHT22;7693;49.266;7.104;2023-12-20T18:36:55;6.20;99.90
15184;DHT22;7693;49.266;7.104;2023-12-20T18:39:20;6.20;99.90
15184;DHT22;7693;49.266;7.104;2023-12-20T18:41:46;6.20;99.90
15184;DHT22;7693;49.266;7.104;2023-12-20T18:44:16;6.30;99.90
15184;DHT22;7693;49.266;7.104;2023-12-20T18:46:43;6.20;99.90
15184;DHT22;7693;49.266;7.104;2023-12-20T18:49:09;6.20;99.90
15184;DHT22;7693;49.266;7.104;2023-12-20T18:51:35;6.20;99.90
15184;DHT22;7693;49.266;7.104;2023-12-20T18:54:01;6.20;99.90
15184;DHT22;7693;49.266;7.104;2023-12-20T18:56:27;6.20;99.90
15184;DHT22;7693;49.266;7.104;2023-12-20T18:58:53;6.30;99.90
15184;DHT22;7693;49.266;7.104;2023-12-20T19:01:18;6.20;99.90
15184;DHT22;7693;49.266;7.104;2023-12-20T19:03:44;6.30;99.90
15184;DHT22;7693;49.266;7.104;2023-12-20T19:06:10;6.30;99.90
15184;DHT22;7693;49.266;7.104;2023-12-20T19:08:36;6.30;99.90
15184;DHT22;7693;49.266;7.104;2023-12-20T19:11:02;6.20;99.90
15184;DHT22;7693;49.266;7.104;2023-12-20T19:13:28;6.30;99.90
15184;DHT22;7693;49.266;7.104;2023-12-20T19:15:57;6.30;99.90
15184;DHT22;7693;49.266;7.104;2023-12-20T19:18:24;6.30;99.90
15184;DHT22;7693;49.266;7.104;2023-12-20T19:20:49;6.30;99.90
15184;DHT22;7693;49.266;7.104;2023-12-20T19:23:16;6.30;99.90
15184;DHT22;7693;49.266;7.104;2023-12-20T19:25:41;6.30;99.90
15184;DHT22;7693;49.266;7.104;2023-12-20T19:28:07;6.30;99.90
15184;DHT22;7693;49.266;7.104;2023-12-20T19:30:33;6.40;99.90
15184;DHT22;7693;49.266;7.104;2023-12-20T19:32:59;6.40;99.90
15184;DHT22;7693;49.266;7.104;2023-12-20T19:35:24;6.40;99.90
15184;DHT22;7693;49.266;7.104;2023-12-20T19:37:50;6.40;99.90
15184;DHT22;7693;49.266;7.104;2023-12-20T19:40:15;6.40;99.90
15184;DHT22;7693;49.266;7.104;2023-12-20T19:42:43;6.40;99.90
15184;DHT22;7693;49.266;7.104;2023-12-20T19:45:09;6.40;99.90
15184;DHT22;7693;49.266;7.104;2023-12-20T19:47:36;6.40;99.90
15184;DHT22;7693;49.266;7.104;2023-12-20T19:50:02;6.40;99.90
15184;DHT22;7693;49.266;7.104;2023-12-20T19:52:28;6.40;99.90
15184;DHT22;7693;49.266;7.104;2023-12-20T19:54:54;6.50;99.90
15184;DHT22;7693;49.266;7.104;2023-12-20T19:57:20;6.50;99.90
15184;DHT22;7693;49.266;7.104;2023-12-20T19:59:47;6.40;99.90
15184;DHT22;7693;49.266;7.104;2023-12-20T20:02:13;6.50;99.90
15184;DHT22;7693;49.266;7.104;2023-12-20T20:04:39;6.50;99.90
15184;DHT22;7693;49.266;7.104;2023-12-20T20:07:05;6.50;99.90
15184;DHT22;7693;49.266;7.104;2023-12-20T20:09:35;6.50;99.90
15184;DHT22;7693;49.266;7.104;2023-12-20T20:12:01;6.50;99.90
15184;DHT22;7693;49.266;7.104;2023-12-20T20:14:26;6.60;99.90
15184;DHT22;7693;49.266;7.104;2023-12-20T20:16:55;6.50;99.90
15184;DHT22;7693;49.266;7.104;2023-12-20T20:19:20;6.50;99.90
15184;DHT22;7693;49.266;7.104;2023-12-20T20:21:46;6.50;99.90
15184;DHT22;7693;49.266;7.104;2023-12-20T20:24:13;6.50;99.90
15184;DHT22;7693;49.266;7.104;2023-12-20T20:26:38;6.50;99.90
15184;DHT22;7693;49.266;7.104;2023-12-20T20:29:04;6.60;99.90
15184;DHT22;7693;49.266;7.104;2023-12-20T20:31:29;6.50;99.90
15184;DHT22;7693;49.266;7.104;2023-12-20T20:33:59;6.60;99.90